Main page
METAR-TAF:

METAR-TAF

Airports :

Madrid, Spain

Adolfo Suárez Madrid–Barajas Airport

latitude: 40-27N, longitude: 003-33W, elevation: 609 m

Current weather observation

The report was made 15 minutes ago, at 05:00 UTC
Wind 3 kt from the North
Temperature 3°C
Humidity 93%
Pressure 1028 hPa
Visibility 10 km or more
no clouds below 1500 m and no cumulonimbus

METAR: LEMD 290500Z 36003KT CAVOK 03/02 Q1028 NOSIG

Time: 07:15 (05:15 UTC)

Forecast

The report was made 6 hours and 15 minutes ago, at 23:00 UTC
Forecast valid from 29 at 00 UTC to 30 at 06 UTC
Wind 5 kt from variable directions
Visibility 10 km or more
no clouds below 1500 m and no cumulonimbus

TAF: LEMD 282300Z 2900/3006 VRB05KT CAVOK TX20/2915Z TN04/2906Z

Weather observations and forecasts of more than 4000 airports (METAR and TAF reports).

The available stations are represented by yellow and red dots on the map.

Hover mouse over dot to see the name of the station.

Then click to see weather observations and forecasts.

To change the map : click on the green buttons with a black cross to zoom in, on the green button with a dash to zoom out, or on the green arrows for adjacent maps.


METAR-TAF: